sensor_id;sensor_type;location;lat;lon;timestamp;P1;durP1;ratioP1;P2;durP2;ratioP2
77814;SDS011;67002;52.124;21.210;2023-03-02T00:02:20;22.00;;;14.20;;
77814;SDS011;67002;52.124;21.210;2023-03-02T00:04:52;22.50;;;14.60;;
77814;SDS011;67002;52.124;21.210;2023-03-02T00:07:26;22.50;;;14.50;;
77814;SDS011;67002;52.124;21.210;2023-03-02T00:09:59;20.90;;;14.10;;
77814;SDS011;67002;52.124;21.210;2023-03-02T00:12:31;23.20;;;13.70;;
77814;SDS011;67002;52.124;21.210;2023-03-02T00:15:04;23.30;;;14.10;;
77814;SDS011;67002;52.124;21.210;2023-03-02T00:17:37;23.00;;;13.80;;
77814;SDS011;67002;52.124;21.210;2023-03-02T00:20:10;25.60;;;15.90;;
77814;SDS011;67002;52.124;21.210;2023-03-02T00:22:43;24.70;;;14.90;;
77814;SDS011;67002;52.124;21.210;2023-03-02T00:25:15;24.20;;;14.60;;
77814;SDS011;67002;52.124;21.210;2023-03-02T00:27:47;21.60;;;13.70;;
77814;SDS011;67002;52.124;21.210;2023-03-02T00:30:19;22.50;;;14.20;;
77814;SDS011;67002;52.124;21.210;2023-03-02T00:32:51;22.90;;;14.20;;
77814;SDS011;67002;52.124;21.210;2023-03-02T00:35:22;19.50;;;13.30;;
77814;SDS011;67002;52.124;21.210;2023-03-02T00:37:54;18.40;;;12.80;;
77814;SDS011;67002;52.124;21.210;2023-03-02T00:40:26;23.70;;;14.00;;
77814;SDS011;67002;52.124;21.210;2023-03-02T00:42:58;21.00;;;13.80;;
77814;SDS011;67002;52.124;21.210;2023-03-02T00:45:30;26.60;;;17.20;;
77814;SDS011;67002;52.124;21.210;2023-03-02T00:48:01;25.90;;;14.80;;
77814;SDS011;67002;52.124;21.210;2023-03-02T00:50:34;22.80;;;15.10;;
77814;SDS011;67002;52.124;21.210;2023-03-02T00:53:09;21.70;;;14.40;;
77814;SDS011;67002;52.124;21.210;2023-03-02T00:55:40;22.80;;;14.10;;
77814;SDS011;67002;52.124;21.210;2023-03-02T00:58:13;22.20;;;14.50;;
77814;SDS011;67002;52.124;21.210;2023-03-02T01:00:44;22.80;;;14.50;;
77814;SDS011;67002;52.124;21.210;2023-03-02T01:03:17;23.90;;;14.80;;
77814;SDS011;67002;52.124;21.210;2023-03-02T01:05:48;24.40;;;14.20;;
77814;SDS011;67002;52.124;21.210;2023-03-02T01:08:24;20.00;;;12.70;;
77814;SDS011;67002;52.124;21.210;2023-03-02T01:10:55;22.20;;;12.90;;
77814;SDS011;67002;52.124;21.210;2023-03-02T01:13:29;25.70;;;17.30;;
77814;SDS011;67002;52.124;21.210;2023-03-02T01:16:01;26.70;;;16.10;;
77814;SDS011;67002;52.124;21.210;2023-03-02T01:18:34;25.90;;;16.60;;
77814;SDS011;67002;52.124;21.210;2023-03-02T01:21:08;25.40;;;17.10;;
77814;SDS011;67002;52.124;21.210;2023-03-02T01:23:42;24.10;;;15.40;;
77814;SDS011;67002;52.124;21.210;2023-03-02T01:26:13;25.20;;;16.30;;
77814;SDS011;67002;52.124;21.210;2023-03-02T01:28:45;24.10;;;16.10;;
77814;SDS011;67002;52.124;21.210;2023-03-02T01:31:18;22.60;;;15.50;;
77814;SDS011;67002;52.124;21.210;2023-03-02T01:33:50;23.30;;;14.20;;
77814;SDS011;67002;52.124;21.210;2023-03-02T01:36:22;21.80;;;14.50;;
77814;SDS011;67002;52.124;21.210;2023-03-02T01:38:54;26.60;;;15.10;;
77814;SDS011;67002;52.124;21.210;2023-03-02T01:41:25;32.70;;;18.40;;
77814;SDS011;67002;52.124;21.210;2023-03-02T01:43:57;28.80;;;16.90;;
77814;SDS011;67002;52.124;21.210;2023-03-02T01:46:29;33.10;;;20.00;;
77814;SDS011;67002;52.124;21.210;2023-03-02T01:49:04;37.40;;;22.50;;
77814;SDS011;67002;52.124;21.210;2023-03-02T01:51:51;38.10;;;23.00;;
77814;SDS011;67002;52.124;21.210;2023-03-02T01:54:23;39.20;;;23.70;;
77814;SDS011;67002;52.124;21.210;2023-03-02T01:56:58;38.50;;;20.90;;
77814;SDS011;67002;52.124;21.210;2023-03-02T01:59:31;30.20;;;19.50;;
77814;SDS011;67002;52.124;21.210;2023-03-02T02:02:04;26.60;;;15.30;;
77814;SDS011;67002;52.124;21.210;2023-03-02T02:04:38;37.50;;;21.60;;
77814;SDS011;67002;52.124;21.210;2023-03-02T02:07:11;41.50;;;24.10;;
77814;SDS011;67002;52.124;21.210;2023-03-02T02:09:44;37.30;;;22.90;;
77814;SDS011;67002;52.124;21.210;2023-03-02T02:12:18;34.70;;;19.10;;
77814;SDS011;67002;52.124;21.210;2023-03-02T02:14:52;40.00;;;21.60;;
77814;SDS011;67002;52.124;21.210;2023-03-02T02:17:28;38.50;;;22.30;;
77814;SDS011;67002;52.124;21.210;2023-03-02T02:20:03;35.60;;;20.90;;
77814;SDS011;67002;52.124;21.210;2023-03-02T02:22:42;31.50;;;19.40;;
77814;SDS011;67002;52.124;21.210;2023-03-02T02:25:25;26.80;;;13.90;;
77814;SDS011;67002;52.124;21.210;2023-03-02T02:28:10;31.10;;;19.40;;
77814;SDS011;67002;52.124;21.210;2023-03-02T02:30:43;32.00;;;19.20;;
77814;SDS011;67002;52.124;21.210;2023-03-02T02:33:17;37.20;;;19.90;;
77814;SDS011;67002;52.124;21.210;2023-03-02T02:35:51;32.00;;;17.80;;
77814;SDS011;67002;52.124;21.210;2023-03-02T02:38:29;33.70;;;18.00;;
77814;SDS011;67002;52.124;21.210;2023-03-02T02:41:03;24.50;;;13.90;;
77814;SDS011;67002;52.124;21.210;2023-03-02T02:43:36;29.40;;;16.40;;
77814;SDS011;67002;52.124;21.210;2023-03-02T02:46:08;24.30;;;14.90;;
77814;SDS011;67002;52.124;21.210;2023-03-02T02:48:41;28.60;;;15.20;;
77814;SDS011;67002;52.124;21.210;2023-03-02T02:51:15;27.70;;;16.30;;
77814;SDS011;67002;52.124;21.210;2023-03-02T02:53:52;19.50;;;12.00;;
77814;SDS011;67002;52.124;21.210;2023-03-02T02:56:29;15.10;;;8.40;;
77814;SDS011;67002;52.124;21.210;2023-03-02T02:59:03;28.60;;;16.00;;
77814;SDS011;67002;52.124;21.210;2023-03-02T03:01:37;12.50;;;6.90;;
77814;SDS011;67002;52.124;21.210;2023-03-02T03:04:10;26.20;;;15.80;;
77814;SDS011;67002;52.124;21.210;2023-03-02T03:06:49;16.00;;;8.90;;
77814;SDS011;67002;52.124;21.210;2023-03-02T03:09:22;13.70;;;8.00;;
77814;SDS011;67002;52.124;21.210;2023-03-02T03:11:55;25.50;;;14.30;;
77814;SDS011;67002;52.124;21.210;2023-03-02T03:14:29;21.90;;;12.30;;
77814;SDS011;67002;52.124;21.210;2023-03-02T03:17:05;24.50;;;13.90;;
77814;SDS011;67002;52.124;21.210;2023-03-02T03:19:43;21.30;;;11.60;;
77814;SDS011;67002;52.124;21.210;2023-03-02T03:22:17;11.10;;;6.10;;
77814;SDS011;67002;52.124;21.210;2023-03-02T03:24:50;27.40;;;16.60;;
77814;SDS011;67002;52.124;21.210;2023-03-02T03:27:21;26.30;;;15.80;;
77814;SDS011;67002;52.124;21.210;2023-03-02T03:29:53;26.00;;;14.80;;
77814;SDS011;67002;52.124;21.210;2023-03-02T03:32:25;26.90;;;15.30;;
77814;SDS011;67002;52.124;21.210;2023-03-02T03:34:57;25.50;;;15.00;;
77814;SDS011;67002;52.124;21.210;2023-03-02T03:37:31;25.70;;;14.80;;
77814;SDS011;67002;52.124;21.210;2023-03-02T03:40:04;22.10;;;13.30;;
77814;SDS011;67002;52.124;21.210;2023-03-02T03:42:41;26.30;;;15.00;;
77814;SDS011;67002;52.124;21.210;2023-03-02T03:45:14;24.50;;;14.00;;
77814;SDS011;67002;52.124;21.210;2023-03-02T03:47:46;24.20;;;14.60;;
77814;SDS011;67002;52.124;21.210;2023-03-02T03:50:18;21.50;;;13.10;;
77814;SDS011;67002;52.124;21.210;2023-03-02T03:52:50;25.20;;;13.60;;
77814;SDS011;67002;52.124;21.210;2023-03-02T03:55:25;24.40;;;13.40;;
77814;SDS011;67002;52.124;21.210;2023-03-02T03:57:58;20.20;;;13.00;;
77814;SDS011;67002;52.124;21.210;2023-03-02T04:00:30;22.90;;;13.40;;
77814;SDS011;67002;52.124;21.210;2023-03-02T04:03:05;25.10;;;13.20;;
77814;SDS011;67002;52.124;21.210;2023-03-02T04:05:37;22.90;;;13.20;;
77814;SDS011;67002;52.124;21.210;2023-03-02T04:08:15;21.60;;;13.50;;
77814;SDS011;67002;52.124;21.210;2023-03-02T04:10:47;22.50;;;13.40;;
77814;SDS011;67002;52.124;21.210;2023-03-02T04:13:19;24.10;;;14.60;;
77814;SDS011;67002;52.124;21.210;2023-03-02T04:15:52;28.80;;;14.20;;
77814;SDS011;67002;52.124;21.210;2023-03-02T04:18:24;23.80;;;14.30;;
77814;SDS011;67002;52.124;21.210;2023-03-02T04:20:56;25.60;;;14.20;;
77814;SDS011;67002;52.124;21.210;2023-03-02T04:23:28;23.30;;;13.50;;
77814;SDS011;67002;52.124;21.210;2023-03-02T04:26:00;27.00;;;15.30;;
77814;SDS011;67002;52.124;21.210;2023-03-02T04:28:33;24.80;;;14.10;;
77814;SDS011;67002;52.124;21.210;2023-03-02T04:31:05;24.30;;;13.90;;
77814;SDS011;67002;52.124;21.210;2023-03-02T04:33:37;27.30;;;15.80;;
77814;SDS011;67002;52.124;21.210;2023-03-02T04:36:10;27.10;;;14.00;;
77814;SDS011;67002;52.124;21.210;2023-03-02T04:38:42;27.10;;;15.10;;
77814;SDS011;67002;52.124;21.210;2023-03-02T04:41:15;25.40;;;14.30;;
77814;SDS011;67002;52.124;21.210;2023-03-02T04:43:47;24.40;;;14.10;;
77814;SDS011;67002;52.124;21.210;2023-03-02T04:46:22;23.30;;;12.90;;
77814;SDS011;67002;52.124;21.210;2023-03-02T04:51:27;22.80;;;12.90;;
77814;SDS011;67002;52.124;21.210;2023-03-02T04:54:00;23.30;;;12.90;;
77814;SDS011;67002;52.124;21.210;2023-03-02T04:56:33;25.70;;;13.70;;
77814;SDS011;67002;52.124;21.210;2023-03-02T04:59:05;28.20;;;15.40;;
77814;SDS011;67002;52.124;21.210;2023-03-02T05:01:37;24.70;;;14.00;;
77814;SDS011;67002;52.124;21.210;2023-03-02T05:04:10;24.60;;;14.10;;
77814;SDS011;67002;52.124;21.210;2023-03-02T05:06:42;26.50;;;14.70;;
77814;SDS011;67002;52.124;21.210;2023-03-02T05:09:18;21.80;;;13.40;;
77814;SDS011;67002;52.124;21.210;2023-03-02T05:12:04;25.00;;;14.60;;
77814;SDS011;67002;52.124;21.210;2023-03-02T05:14:44;20.70;;;12.80;;
77814;SDS011;67002;52.124;21.210;2023-03-02T05:17:16;26.50;;;13.70;;
77814;SDS011;67002;52.124;21.210;2023-03-02T05:19:47;25.00;;;15.60;;
77814;SDS011;67002;52.124;21.210;2023-03-02T05:22:19;26.10;;;14.30;;
77814;SDS011;67002;52.124;21.210;2023-03-02T05:24:51;27.40;;;15.00;;
77814;SDS011;67002;52.124;21.210;2023-03-02T05:27:23;25.60;;;14.90;;
77814;SDS011;67002;52.124;21.210;2023-03-02T05:30:00;23.60;;;15.20;;
77814;SDS011;67002;52.124;21.210;2023-03-02T05:32:32;23.10;;;13.90;;
77814;SDS011;67002;52.124;21.210;2023-03-02T05:37:39;23.50;;;14.60;;
77814;SDS011;67002;52.124;21.210;2023-03-02T05:40:14;25.80;;;15.40;;
77814;SDS011;67002;52.124;21.210;2023-03-02T05:42:48;22.20;;;13.70;;
77814;SDS011;67002;52.124;21.210;2023-03-02T05:45:21;25.60;;;15.30;;
77814;SDS011;67002;52.124;21.210;2023-03-02T05:47:54;26.50;;;15.60;;
77814;SDS011;67002;52.124;21.210;2023-03-02T05:50:26;25.50;;;15.00;;
77814;SDS011;67002;52.124;21.210;2023-03-02T05:52:58;24.70;;;14.90;;
77814;SDS011;67002;52.124;21.210;2023-03-02T05:55:31;28.70;;;15.70;;
77814;SDS011;67002;52.124;21.210;2023-03-02T05:58:05;25.30;;;15.00;;
77814;SDS011;67002;52.124;21.210;2023-03-02T06:00:45;27.80;;;15.50;;
77814;SDS011;67002;52.124;21.210;2023-03-02T06:03:17;27.20;;;15.60;;
77814;SDS011;67002;52.124;21.210;2023-03-02T06:05:49;24.50;;;15.10;;
77814;SDS011;67002;52.124;21.210;2023-03-02T06:08:21;25.80;;;14.10;;
77814;SDS011;67002;52.124;21.210;2023-03-02T06:10:55;24.80;;;14.20;;
77814;SDS011;67002;52.124;21.210;2023-03-02T06:13:27;26.20;;;15.10;;
77814;SDS011;67002;52.124;21.210;2023-03-02T06:15:58;27.10;;;15.60;;
77814;SDS011;67002;52.124;21.210;2023-03-02T06:18:30;25.10;;;14.50;;
77814;SDS011;67002;52.124;21.210;2023-03-02T06:21:02;23.10;;;14.40;;
77814;SDS011;67002;52.124;21.210;2023-03-02T06:23:34;29.30;;;15.20;;
77814;SDS011;67002;52.124;21.210;2023-03-02T06:26:08;26.80;;;15.60;;
77814;SDS011;67002;52.124;21.210;2023-03-02T06:28:40;24.30;;;14.40;;
77814;SDS011;67002;52.124;21.210;2023-03-02T06:31:21;22.40;;;13.50;;
77814;SDS011;67002;52.124;21.210;2023-03-02T06:33:53;28.80;;;15.30;;
77814;SDS011;67002;52.124;21.210;2023-03-02T06:36:25;29.20;;;15.60;;
77814;SDS011;67002;52.124;21.210;2023-03-02T06:38:57;26.20;;;15.40;;
77814;SDS011;67002;52.124;21.210;2023-03-02T06:41:29;28.40;;;16.00;;
77814;SDS011;67002;52.124;21.210;2023-03-02T06:44:01;27.70;;;16.50;;
77814;SDS011;67002;52.124;21.210;2023-03-02T06:46:33;26.30;;;15.00;;
77814;SDS011;67002;52.124;21.210;2023-03-02T06:49:05;22.60;;;14.10;;
77814;SDS011;67002;52.124;21.210;2023-03-02T06:51:37;23.90;;;14.80;;
77814;SDS011;67002;52.124;21.210;2023-03-02T06:54:09;26.80;;;15.80;;
77814;SDS011;67002;52.124;21.210;2023-03-02T06:56:41;27.80;;;15.70;;
77814;SDS011;67002;52.124;21.210;2023-03-02T06:59:12;25.30;;;15.40;;
77814;SDS011;67002;52.124;21.210;2023-03-02T07:01:44;31.80;;;15.90;;
77814;SDS011;67002;52.124;21.210;2023-03-02T07:04:18;25.20;;;15.70;;
77814;SDS011;67002;52.124;21.210;2023-03-02T07:06:50;28.30;;;16.50;;
77814;SDS011;67002;52.124;21.210;2023-03-02T07:09:21;26.20;;;15.20;;
77814;SDS011;67002;52.124;21.210;2023-03-02T07:11:53;29.00;;;14.80;;
77814;SDS011;67002;52.124;21.210;2023-03-02T07:14:25;28.60;;;16.60;;
77814;SDS011;67002;52.124;21.210;2023-03-02T07:16:57;25.70;;;14.60;;
77814;SDS011;67002;52.124;21.210;2023-03-02T07:19:28;25.30;;;14.10;;
77814;SDS011;67002;52.124;21.210;2023-03-02T07:22:00;25.80;;;15.60;;
77814;SDS011;67002;52.124;21.210;2023-03-02T07:24:32;27.60;;;15.70;;
77814;SDS011;67002;52.124;21.210;2023-03-02T07:27:04;24.50;;;14.70;;
77814;SDS011;67002;52.124;21.210;2023-03-02T07:29:36;26.30;;;15.20;;
77814;SDS011;67002;52.124;21.210;2023-03-02T07:32:07;29.30;;;15.00;;
77814;SDS011;67002;52.124;21.210;2023-03-02T07:34:40;27.30;;;14.60;;
77814;SDS011;67002;52.124;21.210;2023-03-02T07:37:12;27.00;;;15.40;;
77814;SDS011;67002;52.124;21.210;2023-03-02T07:39:45;26.00;;;15.70;;
77814;SDS011;67002;52.124;21.210;2023-03-02T07:42:17;25.90;;;15.30;;
77814;SDS011;67002;52.124;21.210;2023-03-02T07:44:52;27.30;;;16.80;;
77814;SDS011;67002;52.124;21.210;2023-03-02T07:47:24;25.60;;;14.70;;
77814;SDS011;67002;52.124;21.210;2023-03-02T07:49:55;26.10;;;15.00;;
77814;SDS011;67002;52.124;21.210;2023-03-02T07:52:28;27.40;;;16.30;;
77814;SDS011;67002;52.124;21.210;2023-03-02T07:55:00;24.40;;;14.60;;
77814;SDS011;67002;52.124;21.210;2023-03-02T07:57:32;24.40;;;14.20;;
77814;SDS011;67002;52.124;21.210;2023-03-02T08:00:04;25.40;;;14.30;;
77814;SDS011;67002;52.124;21.210;2023-03-02T08:02:40;22.80;;;13.90;;
77814;SDS011;67002;52.124;21.210;2023-03-02T08:05:12;25.00;;;14.50;;
77814;SDS011;67002;52.124;21.210;2023-03-02T08:07:46;20.20;;;13.30;;
77814;SDS011;67002;52.124;21.210;2023-03-02T08:10:17;21.30;;;13.00;;
77814;SDS011;67002;52.124;21.210;2023-03-02T08:12:49;22.90;;;14.40;;
77814;SDS011;67002;52.124;21.210;2023-03-02T08:15:21;24.80;;;14.70;;
77814;SDS011;67002;52.124;21.210;2023-03-02T08:17:52;25.50;;;14.30;;
77814;SDS011;67002;52.124;21.210;2023-03-02T08:20:24;24.40;;;13.60;;
77814;SDS011;67002;52.124;21.210;2023-03-02T08:22:56;23.10;;;12.40;;
77814;SDS011;67002;52.124;21.210;2023-03-02T08:25:28;22.20;;;13.90;;
77814;SDS011;67002;52.124;21.210;2023-03-02T08:27:59;19.90;;;13.50;;
77814;SDS011;67002;52.124;21.210;2023-03-02T08:30:31;18.80;;;11.90;;
77814;SDS011;67002;52.124;21.210;2023-03-02T08:33:03;23.00;;;13.10;;
77814;SDS011;67002;52.124;21.210;2023-03-02T08:35:35;23.10;;;12.40;;
77814;SDS011;67002;52.124;21.210;2023-03-02T08:38:06;22.80;;;12.40;;
77814;SDS011;67002;52.124;21.210;2023-03-02T08:40:38;21.90;;;12.50;;
77814;SDS011;67002;52.124;21.210;2023-03-02T08:43:10;22.00;;;12.10;;
77814;SDS011;67002;52.124;21.210;2023-03-02T08:45:42;20.00;;;11.70;;
77814;SDS011;67002;52.124;21.210;2023-03-02T08:48:14;21.60;;;13.50;;
77814;SDS011;67002;52.124;21.210;2023-03-02T08:50:45;26.40;;;14.80;;
77814;SDS011;67002;52.124;21.210;2023-03-02T08:53:24;22.50;;;12.20;;
77814;SDS011;67002;52.124;21.210;2023-03-02T08:55:57;18.90;;;11.00;;
77814;SDS011;67002;52.124;21.210;2023-03-02T08:58:29;22.30;;;12.10;;
77814;SDS011;67002;52.124;21.210;2023-03-02T09:01:01;21.60;;;12.20;;
77814;SDS011;67002;52.124;21.210;2023-03-02T09:03:33;20.60;;;12.30;;
77814;SDS011;67002;52.124;21.210;2023-03-02T09:06:05;19.10;;;12.30;;
77814;SDS011;67002;52.124;21.210;2023-03-02T09:08:37;18.20;;;10.90;;
77814;SDS011;67002;52.124;21.210;2023-03-02T09:11:09;19.40;;;11.60;;
77814;SDS011;67002;52.124;21.210;2023-03-02T09:13:40;17.90;;;11.10;;
77814;SDS011;67002;52.124;21.210;2023-03-02T09:16:12;18.30;;;10.00;;
77814;SDS011;67002;52.124;21.210;2023-03-02T09:18:44;17.10;;;9.40;;
77814;SDS011;67002;52.124;21.210;2023-03-02T09:21:16;18.10;;;10.00;;
77814;SDS011;67002;52.124;21.210;2023-03-02T09:23:48;15.80;;;9.90;;
77814;SDS011;67002;52.124;21.210;2023-03-02T09:26:21;16.20;;;10.00;;
77814;SDS011;67002;52.124;21.210;2023-03-02T09:28:53;15.80;;;9.30;;
77814;SDS011;67002;52.124;21.210;2023-03-02T09:31:25;13.10;;;8.10;;
77814;SDS011;67002;52.124;21.210;2023-03-02T09:33:58;13.30;;;7.80;;
77814;SDS011;67002;52.124;21.210;2023-03-02T09:36:30;13.80;;;7.90;;
77814;SDS011;67002;52.124;21.210;2023-03-02T09:39:02;16.10;;;10.10;;
77814;SDS011;67002;52.124;21.210;2023-03-02T09:41:53;14.40;;;9.10;;
77814;SDS011;67002;52.124;21.210;2023-03-02T09:44:37;18.90;;;9.80;;
77814;SDS011;67002;52.124;21.210;2023-03-02T09:47:17;14.10;;;8.90;;
77814;SDS011;67002;52.124;21.210;2023-03-02T09:50:09;15.70;;;9.30;;
77814;SDS011;67002;52.124;21.210;2023-03-02T09:52:46;15.30;;;8.90;;
77814;SDS011;67002;52.124;21.210;2023-03-02T09:55:23;13.60;;;9.30;;
77814;SDS011;67002;52.124;21.210;2023-03-02T09:57:56;14.50;;;9.60;;
77814;SDS011;67002;52.124;21.210;2023-03-02T10:00:30;14.40;;;8.60;;
77814;SDS011;67002;52.124;21.210;2023-03-02T10:03:04;12.60;;;8.00;;
77814;SDS011;67002;52.124;21.210;2023-03-02T10:05:46;12.30;;;8.40;;
77814;SDS011;67002;52.124;21.210;2023-03-02T10:08:19;13.90;;;8.10;;
77814;SDS011;67002;52.124;21.210;2023-03-02T10:10:59;14.70;;;8.50;;
77814;SDS011;67002;52.124;21.210;2023-03-02T10:13:38;12.20;;;6.30;;
77814;SDS011;67002;52.124;21.210;2023-03-02T10:16:17;12.10;;;8.10;;
77814;SDS011;67002;52.124;21.210;2023-03-02T10:18:55;12.30;;;7.50;;
77814;SDS011;67002;52.124;21.210;2023-03-02T10:21:34;14.10;;;7.90;;
77814;SDS011;67002;52.124;21.210;2023-03-02T10:24:13;14.20;;;8.10;;
77814;SDS011;67002;52.124;21.210;2023-03-02T10:26:52;14.00;;;8.40;;
77814;SDS011;67002;52.124;21.210;2023-03-02T10:29:31;13.20;;;7.70;;
77814;SDS011;67002;52.124;21.210;2023-03-02T10:32:12;13.10;;;7.40;;
77814;SDS011;67002;52.124;21.210;2023-03-02T10:34:47;13.00;;;7.60;;
77814;SDS011;67002;52.124;21.210;2023-03-02T10:37:20;13.40;;;7.00;;
77814;SDS011;67002;52.124;21.210;2023-03-02T10:39:53;11.90;;;7.60;;
77814;SDS011;67002;52.124;21.210;2023-03-02T10:42:27;11.00;;;6.30;;
77814;SDS011;67002;52.124;21.210;2023-03-02T10:45:02;15.00;;;8.50;;
77814;SDS011;67002;52.124;21.210;2023-03-02T10:47:37;14.70;;;8.70;;
77814;SDS011;67002;52.124;21.210;2023-03-02T10:50:19;14.00;;;8.50;;
77814;SDS011;67002;52.124;21.210;2023-03-02T10:52:52;13.90;;;9.20;;
77814;SDS011;67002;52.124;21.210;2023-03-02T10:55:31;14.00;;;8.40;;
77814;SDS011;67002;52.124;21.210;2023-03-02T10:58:04;12.40;;;8.10;;
77814;SDS011;67002;52.124;21.210;2023-03-02T11:00:36;11.50;;;7.20;;
77814;SDS011;67002;52.124;21.210;2023-03-02T11:03:18;12.40;;;6.80;;
77814;SDS011;67002;52.124;21.210;2023-03-02T11:05:51;12.10;;;7.50;;
77814;SDS011;67002;52.124;21.210;2023-03-02T11:08:23;11.70;;;7.10;;
77814;SDS011;67002;52.124;21.210;2023-03-02T11:10:57;13.10;;;8.40;;
77814;SDS011;67002;52.124;21.210;2023-03-02T11:13:31;14.80;;;8.70;;
77814;SDS011;67002;52.124;21.210;2023-03-02T11:18:53;14.30;;;9.20;;
77814;SDS011;67002;52.124;21.210;2023-03-02T11:21:28;15.60;;;10.20;;
77814;SDS011;67002;52.124;21.210;2023-03-02T11:24:05;13.80;;;8.60;;
77814;SDS011;67002;52.124;21.210;2023-03-02T11:26:42;18.10;;;8.90;;
77814;SDS011;67002;52.124;21.210;2023-03-02T11:29:21;14.80;;;8.70;;
77814;SDS011;67002;52.124;21.210;2023-03-02T11:31:58;16.30;;;8.90;;
77814;SDS011;67002;52.124;21.210;2023-03-02T11:34:34;12.10;;;7.40;;
77814;SDS011;67002;52.124;21.210;2023-03-02T11:37:12;14.00;;;7.90;;
77814;SDS011;67002;52.124;21.210;2023-03-02T11:40:02;19.40;;;11.30;;
77814;SDS011;67002;52.124;21.210;2023-03-02T11:42:39;15.70;;;9.70;;
77814;SDS011;67002;52.124;21.210;2023-03-02T11:45:20;15.20;;;9.40;;
77814;SDS011;67002;52.124;21.210;2023-03-02T11:47:55;15.40;;;10.30;;
77814;SDS011;67002;52.124;21.210;2023-03-02T11:50:33;16.40;;;10.70;;
77814;SDS011;67002;52.124;21.210;2023-03-02T11:55:40;16.20;;;9.40;;
77814;SDS011;67002;52.124;21.210;2023-03-02T11:58:17;19.60;;;10.80;;
77814;SDS011;67002;52.124;21.210;2023-03-02T12:00:50;19.20;;;10.60;;
77814;SDS011;67002;52.124;21.210;2023-03-02T12:03:34;17.70;;;12.00;;
77814;SDS011;67002;52.124;21.210;2023-03-02T12:09:07;20.30;;;11.40;;
77814;SDS011;67002;52.124;21.210;2023-03-02T12:11:54;21.00;;;11.70;;
77814;SDS011;67002;52.124;21.210;2023-03-02T12:17:15;22.40;;;11.50;;
77814;SDS011;67002;52.124;21.210;2023-03-02T12:19:50;16.40;;;10.80;;
77814;SDS011;67002;52.124;21.210;2023-03-02T12:22:27;20.20;;;10.50;;
77814;SDS011;67002;52.124;21.210;2023-03-02T12:25:02;20.80;;;11.20;;
77814;SDS011;67002;52.124;21.210;2023-03-02T12:27:37;15.10;;;10.50;;
77814;SDS011;67002;52.124;21.210;2023-03-02T12:30:19;15.20;;;9.80;;
77814;SDS011;67002;52.124;21.210;2023-03-02T12:33:15;15.80;;;9.10;;
77814;SDS011;67002;52.124;21.210;2023-03-02T12:35:49;18.20;;;10.70;;
77814;SDS011;67002;52.124;21.210;2023-03-02T12:38:30;22.00;;;12.80;;
77814;SDS011;67002;52.124;21.210;2023-03-02T12:41:08;17.10;;;10.80;;
77814;SDS011;67002;52.124;21.210;2023-03-02T12:44:02;14.60;;;9.30;;
77814;SDS011;67002;52.124;21.210;2023-03-02T12:46:42;13.50;;;8.90;;
77814;SDS011;67002;52.124;21.210;2023-03-02T12:49:19;14.30;;;8.90;;
77814;SDS011;67002;52.124;21.210;2023-03-02T12:51:59;15.00;;;8.60;;
77814;SDS011;67002;52.124;21.210;2023-03-02T12:54:32;12.40;;;8.60;;
77814;SDS011;67002;52.124;21.210;2023-03-02T12:57:05;15.90;;;10.00;;
77814;SDS011;67002;52.124;21.210;2023-03-02T12:59:42;14.30;;;9.40;;
77814;SDS011;67002;52.124;21.210;2023-03-02T13:02:20;13.00;;;7.70;;
77814;SDS011;67002;52.124;21.210;2023-03-02T13:04:54;15.00;;;9.50;;
77814;SDS011;67002;52.124;21.210;2023-03-02T13:07:27;15.30;;;9.40;;
77814;SDS011;67002;52.124;21.210;2023-03-02T13:10:05;7.40;;;5.00;;
77814;SDS011;67002;52.124;21.210;2023-03-02T13:12:45;12.80;;;8.20;;
77814;SDS011;67002;52.124;21.210;2023-03-02T13:15:17;12.30;;;6.80;;
77814;SDS011;67002;52.124;21.210;2023-03-02T13:17:52;11.60;;;7.40;;
77814;SDS011;67002;52.124;21.210;2023-03-02T13:20:26;9.40;;;6.30;;
77814;SDS011;67002;52.124;21.210;2023-03-02T13:22:58;10.10;;;6.00;;
77814;SDS011;67002;52.124;21.210;2023-03-02T13:25:30;11.90;;;7.50;;
77814;SDS011;67002;52.124;21.210;2023-03-02T13:28:02;10.20;;;6.60;;
77814;SDS011;67002;52.124;21.210;2023-03-02T13:30:35;11.90;;;6.20;;
77814;SDS011;67002;52.124;21.210;2023-03-02T13:33:18;10.90;;;6.90;;
77814;SDS011;67002;52.124;21.210;2023-03-02T13:35:52;9.80;;;6.10;;
77814;SDS011;67002;52.124;21.210;2023-03-02T13:38:25;6.80;;;4.60;;
77814;SDS011;67002;52.124;21.210;2023-03-02T13:40:58;9.80;;;6.40;;
77814;SDS011;67002;52.124;21.210;2023-03-02T13:43:36;10.20;;;6.70;;
77814;SDS011;67002;52.124;21.210;2023-03-02T13:48:58;11.50;;;6.90;;
77814;SDS011;67002;52.124;21.210;2023-03-02T13:51:40;9.40;;;6.30;;
77814;SDS011;67002;52.124;21.210;2023-03-02T13:54:15;9.80;;;6.50;;
77814;SDS011;67002;52.124;21.210;2023-03-02T13:56:50;9.60;;;6.30;;
77814;SDS011;67002;52.124;21.210;2023-03-02T13:59:22;10.60;;;6.80;;
77814;SDS011;67002;52.124;21.210;2023-03-02T14:01:54;8.10;;;4.70;;
77814;SDS011;67002;52.124;21.210;2023-03-02T14:04:26;8.60;;;6.10;;
77814;SDS011;67002;52.124;21.210;2023-03-02T14:06:58;6.80;;;5.00;;
77814;SDS011;67002;52.124;21.210;2023-03-02T14:09:29;6.20;;;4.40;;
77814;SDS011;67002;52.124;21.210;2023-03-02T14:12:01;8.50;;;6.20;;
77814;SDS011;67002;52.124;21.210;2023-03-02T14:14:34;9.90;;;5.90;;
77814;SDS011;67002;52.124;21.210;2023-03-02T14:17:10;9.30;;;6.40;;
77814;SDS011;67002;52.124;21.210;2023-03-02T14:19:45;8.30;;;5.50;;
77814;SDS011;67002;52.124;21.210;2023-03-02T14:22:21;10.20;;;5.70;;
77814;SDS011;67002;52.124;21.210;2023-03-02T14:24:55;10.00;;;5.80;;
77814;SDS011;67002;52.124;21.210;2023-03-02T14:27:27;6.00;;;4.00;;
77814;SDS011;67002;52.124;21.210;2023-03-02T14:30:00;7.40;;;3.80;;
77814;SDS011;67002;52.124;21.210;2023-03-02T14:32:37;7.80;;;5.30;;
77814;SDS011;67002;52.124;21.210;2023-03-02T14:35:09;8.00;;;5.60;;
77814;SDS011;67002;52.124;21.210;2023-03-02T14:37:42;9.50;;;5.60;;
77814;SDS011;67002;52.124;21.210;2023-03-02T14:40:25;8.80;;;6.20;;
77814;SDS011;67002;52.124;21.210;2023-03-02T14:42:57;9.90;;;5.70;;
77814;SDS011;67002;52.124;21.210;2023-03-02T14:45:29;9.10;;;6.20;;
77814;SDS011;67002;52.124;21.210;2023-03-02T14:48:42;10.10;;;5.90;;
77814;SDS011;67002;52.124;21.210;2023-03-02T14:51:17;9.50;;;6.30;;
77814;SDS011;67002;52.124;21.210;2023-03-02T14:53:51;9.70;;;5.70;;
77814;SDS011;67002;52.124;21.210;2023-03-02T14:56:24;6.30;;;5.00;;
77814;SDS011;67002;52.124;21.210;2023-03-02T14:58:56;7.30;;;5.00;;
77814;SDS011;67002;52.124;21.210;2023-03-02T15:01:29;7.60;;;5.10;;
77814;SDS011;67002;52.124;21.210;2023-03-02T15:04:01;8.50;;;5.40;;
77814;SDS011;67002;52.124;21.210;2023-03-02T15:06:34;9.90;;;6.60;;
77814;SDS011;67002;52.124;21.210;2023-03-02T15:09:09;9.60;;;6.70;;
77814;SDS011;67002;52.124;21.210;2023-03-02T15:11:41;10.50;;;6.30;;
77814;SDS011;67002;52.124;21.210;2023-03-02T15:14:13;10.50;;;6.90;;